Churchill, Idaho
Current Conditions -  °F | °C
As of 9:53 PM on Wednesday 17 Dec 2014 (Local Time) from KBYI Reporting Station
Clear Clear  
Wind Chill: 26°   Ceiling: Unl
Heat Index: 31°   Visibility: 10mi
Dew Point: 28°   Wind: 5mph
Humidity: 89%   Direction: 90°E
Pressure: 30.03"   Gusts: NA
Location:  42.2256°N, 114.022°W
Report Text: KBYI 180453Z AUTO 09004KT 10SM CLR M01/M02 A3003 RMK AO2 SLP187 T10061022
Loading
Personal Weather Stations






























Interactive Weather Map New forecast layout! Learn more

10-Day Weather Forecast

Advertisements
Track Severe Weather on mobile